sensor_id;sensor_type;location;lat;lon;timestamp;pressure;altitude;pressure_sealevel;temperature;humidity
77881;BME280;67077;50.298;18.996;2024-03-02T00:01:51;97318.25;;;6.93;100.00
77881;BME280;67077;50.298;18.996;2024-03-02T00:04:19;97310.91;;;6.92;100.00
77881;BME280;67077;50.298;18.996;2024-03-02T00:06:47;97308.17;;;6.92;100.00
77881;BME280;67077;50.298;18.996;2024-03-02T00:09:15;97304.24;;;6.92;100.00
77881;BME280;67077;50.298;18.996;2024-03-02T00:11:43;97303.17;;;6.92;100.00
77881;BME280;67077;50.298;18.996;2024-03-02T00:14:12;97305.53;;;6.91;100.00
77881;BME280;67077;50.298;18.996;2024-03-02T00:16:40;97306.60;;;6.88;100.00
77881;BME280;67077;50.298;18.996;2024-03-02T00:19:09;97310.30;;;6.84;100.00
77881;BME280;67077;50.298;18.996;2024-03-02T00:21:37;97314.70;;;6.81;100.00
77881;BME280;67077;50.298;18.996;2024-03-02T00:24:32;97319.83;;;6.77;100.00
77881;BME280;67077;50.298;18.996;2024-03-02T00:27:03;97318.91;;;6.73;100.00
77881;BME280;67077;50.298;18.996;2024-03-02T00:29:32;97323.80;;;6.70;100.00
77881;BME280;67077;50.298;18.996;2024-03-02T00:32:00;97325.21;;;6.69;100.00
77881;BME280;67077;50.298;18.996;2024-03-02T00:34:29;97328.45;;;6.66;100.00
77881;BME280;67077;50.298;18.996;2024-03-02T00:36:57;97331.39;;;6.65;100.00
77881;BME280;67077;50.298;18.996;2024-03-02T00:39:29;97328.14;;;6.62;100.00
77881;BME280;67077;50.298;18.996;2024-03-02T00:41:57;97323.52;;;6.59;100.00
77881;BME280;67077;50.298;18.996;2024-03-02T00:44:25;97320.09;;;6.56;100.00
77881;BME280;67077;50.298;18.996;2024-03-02T00:47:02;97314.11;;;6.54;100.00
77881;BME280;67077;50.298;18.996;2024-03-02T00:49:30;97314.86;;;6.52;100.00
77881;BME280;67077;50.298;18.996;2024-03-02T00:51:58;97315.99;;;6.50;100.00
77881;BME280;67077;50.298;18.996;2024-03-02T00:54:27;97314.02;;;6.49;100.00
77881;BME280;67077;50.298;18.996;2024-03-02T00:56:57;97319.11;;;6.47;100.00
77881;BME280;67077;50.298;18.996;2024-03-02T00:59:26;97316.02;;;6.46;100.00
77881;BME280;67077;50.298;18.996;2024-03-02T01:01:54;97317.13;;;6.46;100.00
77881;BME280;67077;50.298;18.996;2024-03-02T01:04:22;97313.63;;;6.45;100.00
77881;BME280;67077;50.298;18.996;2024-03-02T01:06:50;97316.61;;;6.45;100.00
77881;BME280;67077;50.298;18.996;2024-03-02T01:09:18;97317.05;;;6.44;100.00
77881;BME280;67077;50.298;18.996;2024-03-02T01:11:46;97319.16;;;6.43;100.00
77881;BME280;67077;50.298;18.996;2024-03-02T01:14:14;97316.84;;;6.43;100.00
77881;BME280;67077;50.298;18.996;2024-03-02T01:16:42;97312.42;;;6.42;100.00
77881;BME280;67077;50.298;18.996;2024-03-02T01:19:10;97310.94;;;6.43;100.00
77881;BME280;67077;50.298;18.996;2024-03-02T01:21:38;97314.70;;;6.43;100.00
77881;BME280;67077;50.298;18.996;2024-03-02T01:24:06;97307.96;;;6.42;100.00
77881;BME280;67077;50.298;18.996;2024-03-02T01:26:33;97302.26;;;6.42;100.00
77881;BME280;67077;50.298;18.996;2024-03-02T01:29:01;97296.61;;;6.40;100.00
77881;BME280;67077;50.298;18.996;2024-03-02T01:31:29;97297.48;;;6.39;100.00
77881;BME280;67077;50.298;18.996;2024-03-02T01:33:57;97298.40;;;6.38;100.00
77881;BME280;67077;50.298;18.996;2024-03-02T01:36:24;97296.80;;;6.36;100.00
77881;BME280;67077;50.298;18.996;2024-03-02T01:38:52;97294.93;;;6.36;100.00
77881;BME280;67077;50.298;18.996;2024-03-02T01:41:20;97293.33;;;6.36;100.00
77881;BME280;67077;50.298;18.996;2024-03-02T01:43:48;97287.92;;;6.35;100.00
77881;BME280;67077;50.298;18.996;2024-03-02T01:46:16;97285.08;;;6.35;100.00
77881;BME280;67077;50.298;18.996;2024-03-02T01:48:46;97284.12;;;6.35;100.00
77881;BME280;67077;50.298;18.996;2024-03-02T01:51:15;97281.23;;;6.37;100.00
77881;BME280;67077;50.298;18.996;2024-03-02T01:53:43;97280.43;;;6.38;100.00
77881;BME280;67077;50.298;18.996;2024-03-02T01:56:10;97277.03;;;6.41;100.00
77881;BME280;67077;50.298;18.996;2024-03-02T01:58:39;97274.30;;;6.42;100.00
77881;BME280;67077;50.298;18.996;2024-03-02T02:01:06;97271.59;;;6.44;100.00
77881;BME280;67077;50.298;18.996;2024-03-02T02:03:34;97269.92;;;6.46;100.00
77881;BME280;67077;50.298;18.996;2024-03-02T02:06:02;97265.98;;;6.47;100.00
77881;BME280;67077;50.298;18.996;2024-03-02T02:08:30;97270.08;;;6.48;100.00
77881;BME280;67077;50.298;18.996;2024-03-02T02:10:59;97272.75;;;6.51;100.00
77881;BME280;67077;50.298;18.996;2024-03-02T02:13:27;97266.00;;;6.53;100.00
77881;BME280;67077;50.298;18.996;2024-03-02T02:15:55;97263.55;;;6.54;100.00
77881;BME280;67077;50.298;18.996;2024-03-02T02:18:22;97265.09;;;6.54;100.00
77881;BME280;67077;50.298;18.996;2024-03-02T02:20:50;97264.75;;;6.54;100.00
77881;BME280;67077;50.298;18.996;2024-03-02T02:23:18;97265.98;;;6.54;100.00
77881;BME280;67077;50.298;18.996;2024-03-02T02:25:46;97261.45;;;6.53;100.00
77881;BME280;67077;50.298;18.996;2024-03-02T02:28:14;97260.23;;;6.52;100.00
77881;BME280;67077;50.298;18.996;2024-03-02T02:30:41;97260.11;;;6.50;100.00
77881;BME280;67077;50.298;18.996;2024-03-02T02:33:13;97257.44;;;6.48;100.00
77881;BME280;67077;50.298;18.996;2024-03-02T02:35:41;97257.29;;;6.46;100.00
77881;BME280;67077;50.298;18.996;2024-03-02T02:38:09;97255.70;;;6.44;100.00
77881;BME280;67077;50.298;18.996;2024-03-02T02:40:37;97251.46;;;6.42;100.00
77881;BME280;67077;50.298;18.996;2024-03-02T02:43:04;97251.67;;;6.40;100.00
77881;BME280;67077;50.298;18.996;2024-03-02T02:45:32;97249.78;;;6.40;100.00
77881;BME280;67077;50.298;18.996;2024-03-02T02:48:00;97247.52;;;6.38;100.00
77881;BME280;67077;50.298;18.996;2024-03-02T02:50:30;97251.83;;;6.37;100.00
77881;BME280;67077;50.298;18.996;2024-03-02T02:52:58;97255.21;;;6.36;100.00
77881;BME280;67077;50.298;18.996;2024-03-02T02:55:26;97255.84;;;6.34;100.00
77881;BME280;67077;50.298;18.996;2024-03-02T02:57:54;97256.22;;;6.32;100.00
77881;BME280;67077;50.298;18.996;2024-03-02T03:00:22;97256.36;;;6.31;100.00
77881;BME280;67077;50.298;18.996;2024-03-02T03:02:50;97255.24;;;6.30;100.00
77881;BME280;67077;50.298;18.996;2024-03-02T03:05:19;97254.01;;;6.30;100.00
77881;BME280;67077;50.298;18.996;2024-03-02T03:07:47;97255.16;;;6.31;100.00
77881;BME280;67077;50.298;18.996;2024-03-02T03:10:17;97253.42;;;6.32;100.00
77881;BME280;67077;50.298;18.996;2024-03-02T03:12:45;97254.70;;;6.33;100.00
77881;BME280;67077;50.298;18.996;2024-03-02T03:15:14;97258.11;;;6.34;100.00
77881;BME280;67077;50.298;18.996;2024-03-02T03:17:43;97260.13;;;6.35;100.00
77881;BME280;67077;50.298;18.996;2024-03-02T03:20:12;97263.30;;;6.37;100.00
77881;BME280;67077;50.298;18.996;2024-03-02T03:22:40;97266.55;;;6.38;100.00
77881;BME280;67077;50.298;18.996;2024-03-02T03:25:08;97260.94;;;6.38;100.00
77881;BME280;67077;50.298;18.996;2024-03-02T03:27:36;97259.91;;;6.38;100.00
77881;BME280;67077;50.298;18.996;2024-03-02T03:30:04;97258.02;;;6.37;100.00
77881;BME280;67077;50.298;18.996;2024-03-02T03:32:33;97256.79;;;6.36;100.00
77881;BME280;67077;50.298;18.996;2024-03-02T03:35:01;97260.59;;;6.34;100.00
77881;BME280;67077;50.298;18.996;2024-03-02T03:37:29;97259.60;;;6.34;100.00
77881;BME280;67077;50.298;18.996;2024-03-02T03:40:00;97260.69;;;6.32;100.00
77881;BME280;67077;50.298;18.996;2024-03-02T03:42:29;97262.67;;;6.31;100.00
77881;BME280;67077;50.298;18.996;2024-03-02T03:44:56;97265.74;;;6.29;100.00
77881;BME280;67077;50.298;18.996;2024-03-02T03:47:24;97260.13;;;6.29;100.00
77881;BME280;67077;50.298;18.996;2024-03-02T03:49:52;97264.55;;;6.28;100.00
77881;BME280;67077;50.298;18.996;2024-03-02T03:52:20;97264.29;;;6.27;100.00
77881;BME280;67077;50.298;18.996;2024-03-02T03:54:48;97262.96;;;6.26;100.00
77881;BME280;67077;50.298;18.996;2024-03-02T03:57:17;97265.61;;;6.24;100.00
77881;BME280;67077;50.298;18.996;2024-03-02T03:59:44;97265.55;;;6.23;100.00
77881;BME280;67077;50.298;18.996;2024-03-02T04:02:13;97261.16;;;6.22;100.00
77881;BME280;67077;50.298;18.996;2024-03-02T04:04:41;97258.98;;;6.23;100.00
77881;BME280;67077;50.298;18.996;2024-03-02T04:07:09;97258.11;;;6.24;100.00
77881;BME280;67077;50.298;18.996;2024-03-02T04:09:37;97254.50;;;6.24;100.00
77881;BME280;67077;50.298;18.996;2024-03-02T04:12:05;97251.58;;;6.24;100.00
77881;BME280;67077;50.298;18.996;2024-03-02T04:14:33;97244.17;;;6.25;100.00
77881;BME280;67077;50.298;18.996;2024-03-02T04:17:01;97246.99;;;6.24;100.00
77881;BME280;67077;50.298;18.996;2024-03-02T04:19:29;97246.38;;;6.23;100.00
77881;BME280;67077;50.298;18.996;2024-03-02T04:21:57;97252.54;;;6.21;100.00
77881;BME280;67077;50.298;18.996;2024-03-02T04:24:24;97251.92;;;6.21;100.00
77881;BME280;67077;50.298;18.996;2024-03-02T04:26:52;97250.15;;;6.21;100.00
77881;BME280;67077;50.298;18.996;2024-03-02T04:29:20;97256.67;;;6.20;100.00
77881;BME280;67077;50.298;18.996;2024-03-02T04:31:48;97260.10;;;6.20;100.00
77881;BME280;67077;50.298;18.996;2024-03-02T04:34:16;97263.04;;;6.19;100.00
77881;BME280;67077;50.298;18.996;2024-03-02T04:36:44;97264.49;;;6.18;100.00
77881;BME280;67077;50.298;18.996;2024-03-02T04:39:12;97261.20;;;6.16;100.00
77881;BME280;67077;50.298;18.996;2024-03-02T04:41:39;97259.97;;;6.14;100.00
77881;BME280;67077;50.298;18.996;2024-03-02T04:44:07;97259.77;;;6.13;100.00
77881;BME280;67077;50.298;18.996;2024-03-02T04:46:35;97265.08;;;6.12;100.00
77881;BME280;67077;50.298;18.996;2024-03-02T04:49:03;97268.25;;;6.11;100.00
77881;BME280;67077;50.298;18.996;2024-03-02T04:51:31;97263.35;;;6.09;100.00
77881;BME280;67077;50.298;18.996;2024-03-02T04:53:59;97254.94;;;6.07;100.00
77881;BME280;67077;50.298;18.996;2024-03-02T04:56:26;97259.58;;;6.04;100.00
77881;BME280;67077;50.298;18.996;2024-03-02T04:59:00;97257.85;;;6.03;100.00
77881;BME280;67077;50.298;18.996;2024-03-02T05:01:28;97260.55;;;6.00;100.00
77881;BME280;67077;50.298;18.996;2024-03-02T05:03:56;97260.83;;;5.96;100.00
77881;BME280;67077;50.298;18.996;2024-03-02T05:06:24;97260.66;;;5.93;100.00
77881;BME280;67077;50.298;18.996;2024-03-02T05:08:51;97262.64;;;5.91;100.00
77881;BME280;67077;50.298;18.996;2024-03-02T05:11:19;97264.13;;;5.88;100.00
77881;BME280;67077;50.298;18.996;2024-03-02T05:14:16;97264.75;;;5.84;100.00
77881;BME280;67077;50.298;18.996;2024-03-02T05:16:44;97263.36;;;5.83;100.00
77881;BME280;67077;50.298;18.996;2024-03-02T05:19:11;97270.70;;;5.83;100.00
77881;BME280;67077;50.298;18.996;2024-03-02T05:21:39;97274.30;;;5.83;100.00
77881;BME280;67077;50.298;18.996;2024-03-02T05:24:07;97280.89;;;5.84;100.00
77881;BME280;67077;50.298;18.996;2024-03-02T05:26:35;97284.55;;;5.86;100.00
77881;BME280;67077;50.298;18.996;2024-03-02T05:29:03;97285.29;;;5.87;100.00
77881;BME280;67077;50.298;18.996;2024-03-02T05:31:30;97290.48;;;5.88;100.00
77881;BME280;67077;50.298;18.996;2024-03-02T05:33:58;97296.03;;;5.90;100.00
77881;BME280;67077;50.298;18.996;2024-03-02T05:36:27;97297.94;;;5.92;100.00
77881;BME280;67077;50.298;18.996;2024-03-02T05:38:54;97300.87;;;5.92;100.00
77881;BME280;67077;50.298;18.996;2024-03-02T05:41:22;97298.05;;;5.93;100.00
77881;BME280;67077;50.298;18.996;2024-03-02T05:43:50;97299.82;;;5.94;100.00
77881;BME280;67077;50.298;18.996;2024-03-02T05:46:18;97298.51;;;5.94;100.00
77881;BME280;67077;50.298;18.996;2024-03-02T05:48:46;97300.89;;;5.95;100.00
77881;BME280;67077;50.298;18.996;2024-03-02T05:51:14;97306.27;;;5.96;100.00
77881;BME280;67077;50.298;18.996;2024-03-02T05:53:41;97304.55;;;5.98;100.00
77881;BME280;67077;50.298;18.996;2024-03-02T05:56:09;97309.03;;;6.01;100.00
77881;BME280;67077;50.298;18.996;2024-03-02T05:58:38;97310.17;;;6.05;100.00
77881;BME280;67077;50.298;18.996;2024-03-02T06:01:24;97315.57;;;6.08;100.00
77881;BME280;67077;50.298;18.996;2024-03-02T06:03:56;97312.83;;;6.11;100.00
77881;BME280;67077;50.298;18.996;2024-03-02T06:06:24;97313.30;;;6.14;100.00
77881;BME280;67077;50.298;18.996;2024-03-02T06:08:52;97314.32;;;6.17;100.00
77881;BME280;67077;50.298;18.996;2024-03-02T06:11:20;97311.13;;;6.21;100.00
77881;BME280;67077;50.298;18.996;2024-03-02T06:13:48;97312.27;;;6.24;100.00
77881;BME280;67077;50.298;18.996;2024-03-02T06:16:16;97312.06;;;6.28;100.00
77881;BME280;67077;50.298;18.996;2024-03-02T06:18:44;97315.98;;;6.32;100.00
77881;BME280;67077;50.298;18.996;2024-03-02T06:21:12;97319.13;;;6.37;100.00
77881;BME280;67077;50.298;18.996;2024-03-02T06:23:39;97320.68;;;6.40;100.00
77881;BME280;67077;50.298;18.996;2024-03-02T06:26:07;97320.60;;;6.43;100.00
77881;BME280;67077;50.298;18.996;2024-03-02T06:28:35;97325.35;;;6.46;100.00
77881;BME280;67077;50.298;18.996;2024-03-02T06:31:03;97327.23;;;6.49;100.00
77881;BME280;67077;50.298;18.996;2024-03-02T06:33:31;97327.59;;;6.52;100.00
77881;BME280;67077;50.298;18.996;2024-03-02T06:35:59;97324.77;;;6.54;100.00
77881;BME280;67077;50.298;18.996;2024-03-02T06:38:26;97326.25;;;6.56;100.00
77881;BME280;67077;50.298;18.996;2024-03-02T06:40:54;97326.87;;;6.59;100.00
77881;BME280;67077;50.298;18.996;2024-03-02T06:43:23;97328.55;;;6.63;100.00
77881;BME280;67077;50.298;18.996;2024-03-02T06:45:51;97326.67;;;6.66;100.00
77881;BME280;67077;50.298;18.996;2024-03-02T06:48:19;97327.32;;;6.69;100.00
77881;BME280;67077;50.298;18.996;2024-03-02T06:50:50;97322.35;;;6.74;100.00
77881;BME280;67077;50.298;18.996;2024-03-02T06:53:19;97326.05;;;6.80;100.00
77881;BME280;67077;50.298;18.996;2024-03-02T06:55:47;97331.02;;;6.83;100.00
77881;BME280;67077;50.298;18.996;2024-03-02T06:58:15;97330.49;;;6.89;100.00
77881;BME280;67077;50.298;18.996;2024-03-02T07:00:43;97328.78;;;6.95;100.00
77881;BME280;67077;50.298;18.996;2024-03-02T07:03:15;97325.99;;;7.04;100.00
77881;BME280;67077;50.298;18.996;2024-03-02T07:05:43;97322.40;;;7.12;100.00
77881;BME280;67077;50.298;18.996;2024-03-02T07:08:11;97323.42;;;7.20;100.00
77881;BME280;67077;50.298;18.996;2024-03-02T07:10:39;97328.55;;;7.27;100.00
77881;BME280;67077;50.298;18.996;2024-03-02T07:13:06;97332.63;;;7.35;100.00
77881;BME280;67077;50.298;18.996;2024-03-02T07:15:34;97330.70;;;7.41;100.00
77881;BME280;67077;50.298;18.996;2024-03-02T07:18:21;97334.52;;;7.50;100.00
77881;BME280;67077;50.298;18.996;2024-03-02T07:20:49;97340.23;;;7.60;100.00
77881;BME280;67077;50.298;18.996;2024-03-02T07:23:17;97338.59;;;7.69;100.00
77881;BME280;67077;50.298;18.996;2024-03-02T07:25:45;97343.90;;;7.77;100.00
77881;BME280;67077;50.298;18.996;2024-03-02T07:28:13;97343.39;;;7.85;100.00
77881;BME280;67077;50.298;18.996;2024-03-02T07:30:42;97342.08;;;7.91;100.00
77881;BME280;67077;50.298;18.996;2024-03-02T07:33:10;97340.08;;;7.99;100.00
77881;BME280;67077;50.298;18.996;2024-03-02T07:35:38;97338.62;;;8.07;100.00
77881;BME280;67077;50.298;18.996;2024-03-02T07:38:06;97339.98;;;8.14;100.00
77881;BME280;67077;50.298;18.996;2024-03-02T07:40:34;97335.16;;;8.20;100.00
77881;BME280;67077;50.298;18.996;2024-03-02T07:43:02;97339.30;;;8.29;100.00
77881;BME280;67077;50.298;18.996;2024-03-02T07:45:30;97343.53;;;8.38;100.00
77881;BME280;67077;50.298;18.996;2024-03-02T07:47:58;97349.17;;;8.46;100.00
77881;BME280;67077;50.298;18.996;2024-03-02T07:50:26;97345.02;;;8.54;100.00
77881;BME280;67077;50.298;18.996;2024-03-02T07:52:54;97345.46;;;8.59;100.00
77881;BME280;67077;50.298;18.996;2024-03-02T07:55:21;97349.63;;;8.65;100.00
77881;BME280;67077;50.298;18.996;2024-03-02T07:57:51;97351.14;;;8.69;100.00
77881;BME280;67077;50.298;18.996;2024-03-02T08:00:20;97351.36;;;8.77;100.00
77881;BME280;67077;50.298;18.996;2024-03-02T08:02:50;97355.42;;;8.85;100.00
77881;BME280;67077;50.298;18.996;2024-03-02T08:05:22;97353.05;;;8.94;100.00
77881;BME280;67077;50.298;18.996;2024-03-02T08:07:51;97353.45;;;9.01;100.00
77881;BME280;67077;50.298;18.996;2024-03-02T08:10:22;97354.80;;;9.07;100.00
77881;BME280;67077;50.298;18.996;2024-03-02T08:12:49;97354.05;;;9.13;100.00
77881;BME280;67077;50.298;18.996;2024-03-02T08:15:17;97355.21;;;9.18;100.00
77881;BME280;67077;50.298;18.996;2024-03-02T08:17:45;97358.51;;;9.24;100.00
77881;BME280;67077;50.298;18.996;2024-03-02T08:20:17;97358.55;;;9.32;100.00
77881;BME280;67077;50.298;18.996;2024-03-02T08:22:45;97359.08;;;9.40;100.00
77881;BME280;67077;50.298;18.996;2024-03-02T08:25:13;97356.56;;;9.46;100.00
77881;BME280;67077;50.298;18.996;2024-03-02T08:27:41;97356.39;;;9.51;100.00
77881;BME280;67077;50.298;18.996;2024-03-02T08:30:09;97359.14;;;9.58;100.00
77881;BME280;67077;50.298;18.996;2024-03-02T08:32:38;97361.15;;;9.64;100.00
77881;BME280;67077;50.298;18.996;2024-03-02T08:35:06;97365.48;;;9.68;100.00
77881;BME280;67077;50.298;18.996;2024-03-02T08:37:34;97366.66;;;9.74;100.00
77881;BME280;67077;50.298;18.996;2024-03-02T08:40:06;97366.95;;;9.79;100.00
77881;BME280;67077;50.298;18.996;2024-03-02T08:42:34;97365.89;;;9.86;100.00
77881;BME280;67077;50.298;18.996;2024-03-02T08:45:02;97370.63;;;9.93;100.00
77881;BME280;67077;50.298;18.996;2024-03-02T08:47:32;97368.90;;;9.98;100.00
77881;BME280;67077;50.298;18.996;2024-03-02T08:50:00;97362.21;;;10.01;100.00
77881;BME280;67077;50.298;18.996;2024-03-02T08:52:28;97365.73;;;10.04;100.00
77881;BME280;67077;50.298;18.996;2024-03-02T08:54:56;97365.16;;;10.05;100.00
77881;BME280;67077;50.298;18.996;2024-03-02T08:57:24;97362.30;;;10.07;100.00
77881;BME280;67077;50.298;18.996;2024-03-02T08:59:52;97363.80;;;10.07;100.00
77881;BME280;67077;50.298;18.996;2024-03-02T09:02:20;97368.35;;;10.07;100.00
77881;BME280;67077;50.298;18.996;2024-03-02T09:04:48;97374.16;;;10.08;100.00
77881;BME280;67077;50.298;18.996;2024-03-02T09:07:16;97374.39;;;10.09;100.00
77881;BME280;67077;50.298;18.996;2024-03-02T09:09:44;97376.86;;;10.12;100.00
77881;BME280;67077;50.298;18.996;2024-03-02T09:12:12;97374.48;;;10.12;100.00
77881;BME280;67077;50.298;18.996;2024-03-02T09:14:40;97378.92;;;10.12;100.00
77881;BME280;67077;50.298;18.996;2024-03-02T09:17:08;97376.50;;;10.07;100.00
77881;BME280;67077;50.298;18.996;2024-03-02T09:19:39;97380.45;;;10.03;100.00
77881;BME280;67077;50.298;18.996;2024-03-02T09:22:07;97382.23;;;10.00;100.00
77881;BME280;67077;50.298;18.996;2024-03-02T09:24:34;97383.92;;;9.99;100.00
77881;BME280;67077;50.298;18.996;2024-03-02T09:27:02;97381.15;;;9.96;100.00
77881;BME280;67077;50.298;18.996;2024-03-02T09:29:30;97384.09;;;9.93;100.00
77881;BME280;67077;50.298;18.996;2024-03-02T09:31:58;97380.12;;;9.94;100.00
77881;BME280;67077;50.298;18.996;2024-03-02T09:34:27;97380.58;;;9.95;100.00
77881;BME280;67077;50.298;18.996;2024-03-02T09:36:55;97386.70;;;9.97;100.00
77881;BME280;67077;50.298;18.996;2024-03-02T09:39:24;97383.20;;;10.00;100.00
77881;BME280;67077;50.298;18.996;2024-03-02T09:41:53;97389.61;;;10.06;100.00
77881;BME280;67077;50.298;18.996;2024-03-02T09:44:21;97393.39;;;10.08;100.00
77881;BME280;67077;50.298;18.996;2024-03-02T09:46:50;97393.89;;;10.10;100.00
77881;BME280;67077;50.298;18.996;2024-03-02T09:49:18;97393.41;;;10.09;100.00
77881;BME280;67077;50.298;18.996;2024-03-02T09:51:47;97392.00;;;10.07;100.00
77881;BME280;67077;50.298;18.996;2024-03-02T09:54:16;97391.05;;;10.04;100.00
77881;BME280;67077;50.298;18.996;2024-03-02T09:56:45;97389.91;;;10.03;100.00
77881;BME280;67077;50.298;18.996;2024-03-02T09:59:13;97391.67;;;10.04;100.00
77881;BME280;67077;50.298;18.996;2024-03-02T10:04:26;97394.02;;;10.08;100.00
77881;BME280;67077;50.298;18.996;2024-03-02T10:07:11;97391.37;;;10.05;100.00
77881;BME280;67077;50.298;18.996;2024-03-02T10:09:44;97392.04;;;10.02;100.00
77881;BME280;67077;50.298;18.996;2024-03-02T10:12:16;97393.50;;;10.00;100.00
77881;BME280;67077;50.298;18.996;2024-03-02T10:14:45;97392.42;;;10.00;100.00
77881;BME280;67077;50.298;18.996;2024-03-02T10:17:14;97389.75;;;9.98;100.00
77881;BME280;67077;50.298;18.996;2024-03-02T10:19:43;97391.15;;;9.96;100.00
77881;BME280;67077;50.298;18.996;2024-03-02T10:22:11;97388.36;;;9.93;100.00
77881;BME280;67077;50.298;18.996;2024-03-02T10:24:41;97388.80;;;9.95;100.00
77881;BME280;67077;50.298;18.996;2024-03-02T10:27:23;97389.27;;;9.99;100.00
77881;BME280;67077;50.298;18.996;2024-03-02T10:29:54;97389.94;;;10.04;100.00
77881;BME280;67077;50.298;18.996;2024-03-02T10:32:22;97393.27;;;10.08;100.00
77881;BME280;67077;50.298;18.996;2024-03-02T10:34:50;97392.23;;;10.11;100.00
77881;BME280;67077;50.298;18.996;2024-03-02T10:37:19;97386.95;;;10.14;100.00
77881;BME280;67077;50.298;18.996;2024-03-02T10:39:53;97390.83;;;10.16;100.00
77881;BME280;67077;50.298;18.996;2024-03-02T10:42:22;97390.74;;;10.20;100.00
77881;BME280;67077;50.298;18.996;2024-03-02T10:44:50;97391.29;;;10.20;100.00
77881;BME280;67077;50.298;18.996;2024-03-02T10:47:19;97395.83;;;10.22;100.00
77881;BME280;67077;50.298;18.996;2024-03-02T10:50:00;97399.27;;;10.24;100.00
77881;BME280;67077;50.298;18.996;2024-03-02T10:52:29;97399.77;;;10.28;100.00
77881;BME280;67077;50.298;18.996;2024-03-02T10:54:57;97402.13;;;10.31;100.00
77881;BME280;67077;50.298;18.996;2024-03-02T10:57:26;97397.28;;;10.32;100.00
77881;BME280;67077;50.298;18.996;2024-03-02T10:59:56;97396.88;;;10.31;100.00
77881;BME280;67077;50.298;18.996;2024-03-02T11:02:30;97395.48;;;10.28;100.00
77881;BME280;67077;50.298;18.996;2024-03-02T11:05:00;97399.16;;;10.29;100.00
77881;BME280;67077;50.298;18.996;2024-03-02T11:07:31;97399.65;;;10.32;100.00
77881;BME280;67077;50.298;18.996;2024-03-02T11:10:01;97402.42;;;10.32;100.00
77881;BME280;67077;50.298;18.996;2024-03-02T11:12:39;97399.20;;;10.33;100.00
77881;BME280;67077;50.298;18.996;2024-03-02T11:15:27;97395.30;;;10.35;100.00
77881;BME280;67077;50.298;18.996;2024-03-02T11:17:55;97394.52;;;10.37;100.00
77881;BME280;67077;50.298;18.996;2024-03-02T11:20:24;97393.73;;;10.37;100.00
77881;BME280;67077;50.298;18.996;2024-03-02T11:22:53;97395.64;;;10.39;100.00
77881;BME280;67077;50.298;18.996;2024-03-02T11:25:25;97396.60;;;10.42;100.00
77881;BME280;67077;50.298;18.996;2024-03-02T11:33:06;97388.48;;;10.65;100.00
77881;BME280;67077;50.298;18.996;2024-03-02T11:35:35;97379.17;;;10.77;100.00
77881;BME280;67077;50.298;18.996;2024-03-02T11:38:06;97375.83;;;10.88;100.00
77881;BME280;67077;50.298;18.996;2024-03-02T11:40:35;97372.52;;;11.00;100.00
77881;BME280;67077;50.298;18.996;2024-03-02T11:43:05;97374.17;;;11.13;100.00
77881;BME280;67077;50.298;18.996;2024-03-02T11:45:37;97373.65;;;11.24;100.00
77881;BME280;67077;50.298;18.996;2024-03-02T11:49:10;97370.02;;;11.41;100.00
77881;BME280;67077;50.298;18.996;2024-03-02T12:04:51;97369.75;;;12.04;100.00
77881;BME280;67077;50.298;18.996;2024-03-02T12:11:39;97354.28;;;12.11;100.00
77881;BME280;67077;50.298;18.996;2024-03-02T12:19:51;97355.09;;;12.28;100.00
77881;BME280;67077;50.298;18.996;2024-03-02T12:22:19;97352.23;;;12.34;100.00
77881;BME280;67077;50.298;18.996;2024-03-02T12:24:46;97350.30;;;12.35;100.00
77881;BME280;67077;50.298;18.996;2024-03-02T12:27:15;97352.14;;;12.39;100.00
77881;BME280;67077;50.298;18.996;2024-03-02T12:29:43;97349.48;;;12.41;100.00
77881;BME280;67077;50.298;18.996;2024-03-02T12:32:11;97349.83;;;12.42;100.00
77881;BME280;67077;50.298;18.996;2024-03-02T12:34:39;97349.33;;;12.41;100.00
77881;BME280;67077;50.298;18.996;2024-03-02T12:37:07;97348.70;;;12.42;100.00
77881;BME280;67077;50.298;18.996;2024-03-02T12:39:35;97351.42;;;12.43;100.00
77881;BME280;67077;50.298;18.996;2024-03-02T12:42:03;97348.02;;;12.44;100.00
77881;BME280;67077;50.298;18.996;2024-03-02T12:44:30;97344.92;;;12.41;100.00
77881;BME280;67077;50.298;18.996;2024-03-02T12:46:58;97344.30;;;12.36;100.00
77881;BME280;67077;50.298;18.996;2024-03-02T12:49:26;97339.61;;;12.29;100.00
77881;BME280;67077;50.298;18.996;2024-03-02T12:51:56;97340.05;;;12.21;100.00
77881;BME280;67077;50.298;18.996;2024-03-02T12:54:25;97341.73;;;12.16;100.00
77881;BME280;67077;50.298;18.996;2024-03-02T12:56:56;97342.79;;;12.14;100.00
77881;BME280;67077;50.298;18.996;2024-03-02T12:59:25;97339.16;;;12.11;100.00
77881;BME280;67077;50.298;18.996;2024-03-02T13:01:55;97344.93;;;12.07;100.00
77881;BME280;67077;50.298;18.996;2024-03-02T13:04:28;97351.29;;;12.04;100.00
77881;BME280;67077;50.298;18.996;2024-03-02T13:06:56;97353.83;;;12.04;100.00
77881;BME280;67077;50.298;18.996;2024-03-02T13:09:25;97355.46;;;12.01;100.00
77881;BME280;67077;50.298;18.996;2024-03-02T13:11:54;97354.84;;;11.93;100.00
77881;BME280;67077;50.298;18.996;2024-03-02T13:14:22;97350.39;;;11.86;100.00
77881;BME280;67077;50.298;18.996;2024-03-02T13:16:52;97352.73;;;11.78;100.00
77881;BME280;67077;50.298;18.996;2024-03-02T13:19:20;97350.52;;;11.69;100.00
77881;BME280;67077;50.298;18.996;2024-03-02T13:21:48;97348.80;;;11.62;100.00
77881;BME280;67077;50.298;18.996;2024-03-02T13:24:16;97346.48;;;11.56;100.00
77881;BME280;67077;50.298;18.996;2024-03-02T13:26:43;97345.36;;;11.51;100.00
77881;BME280;67077;50.298;18.996;2024-03-02T13:29:11;97343.18;;;11.50;100.00